Time;durP1;ratioP1;P1;durP2;ratioP2;P2;SDS_P1;SDS_P2;PMS_P1;PMS_P2;Temp;Humidity;BMP_temperature;BMP_pressure;BME280_temperature;BME280_humidity;BME280_pressure;Samples;Min_cycle;Max_cycle;Signal;HPM_P1;HPM_P2
2022/06/30 00:00:40;;;;;;;12.48;3.80;;;;;;;18.74;80.29;92363.81;5048817;28;20034;-76
2022/06/30 00:03:05;;;;;;;11.77;3.53;;;;;;;18.73;79.92;92355.09;5037981;28;20633;-77
2022/06/30 00:05:31;;;;;;;14.68;3.55;;;;;;;18.72;80.09;92356.19;5068317;28;20093;-77
2022/06/30 00:07:57;;;;;;;9.13;3.40;;;;;;;18.69;80.75;92356.09;5067976;28;20039;-77
2022/06/30 00:10:23;;;;;;;13.35;3.42;;;;;;;18.67;80.73;92356.44;5065559;28;20398;-77
2022/06/30 00:12:48;;;;;;;14.55;3.50;;;;;;;18.64;80.81;92351.03;5051881;28;20048;-77
2022/06/30 00:15:14;;;;;;;11.95;3.45;;;;;;;18.63;80.83;92352.16;5051423;28;20033;-77
2022/06/30 00:17:39;;;;;;;11.00;3.55;;;;;;;18.61;80.92;92355.13;5051929;28;20047;-77
2022/06/30 00:20:06;;;;;;;10.00;3.05;;;;;;;18.60;80.77;92353.59;5051539;28;20033;-77
2022/06/30 00:22:32;;;;;;;8.20;3.28;;;;;;;18.59;80.87;92357.34;5052891;28;20021;-77
2022/06/30 00:24:57;;;;;;;10.48;3.88;;;;;;;18.57;80.90;92356.13;5052791;28;20033;-77
2022/06/30 00:27:23;;;;;;;9.10;2.72;;;;;;;18.55;81.00;92353.06;5049106;28;20162;-77
2022/06/30 00:29:49;;;;;;;10.07;3.45;;;;;;;18.51;81.52;92355.63;5063546;28;20047;-76
2022/06/30 00:32:14;;;;;;;9.48;3.50;;;;;;;18.47;81.72;92355.53;5067880;28;20044;-77
2022/06/30 00:34:40;;;;;;;16.77;3.92;;;;;;;18.45;81.68;92354.31;5051231;28;20041;-77
2022/06/30 00:37:05;;;;;;;10.63;3.45;;;;;;;18.43;81.27;92367.13;5051115;28;20055;-77
2022/06/30 00:39:31;;;;;;;15.85;3.80;;;;;;;18.40;81.28;92360.63;5034111;28;20029;-76
2022/06/30 01:01:43;;;;;;;13.35;3.67;;;;;;;18.25;81.59;92358.69;5162836;22;20515;-77
2022/06/30 01:04:09;;;;;;;11.30;3.60;;;;;;;18.26;81.59;92360.22;5054160;28;20497;-77
2022/06/30 01:06:37;;;;;;;16.48;4.13;;;;;;;18.27;82.10;92359.13;5054062;28;20035;-77
2022/06/30 01:09:03;;;;;;;14.90;3.70;;;;;;;18.26;82.06;92357.56;5053933;28;20059;-76
2022/06/30 01:14:15;;;;;;;13.82;3.83;;;;;;;18.20;81.99;92366.88;5071797;28;20071;-76
2022/06/30 01:16:40;;;;;;;10.48;3.33;;;;;;;18.18;82.33;92369.88;5054629;28;20428;-77
2022/06/30 01:19:07;;;;;;;17.75;4.85;;;;;;;18.16;82.38;92368.66;5072741;28;20044;-77
2022/06/30 01:21:34;;;;;;;15.35;3.70;;;;;;;18.13;82.39;92366.69;5053986;28;20354;-77
2022/06/30 01:23:59;;;;;;;14.82;3.60;;;;;;;18.09;82.52;92370.00;5054696;28;20052;-77
2022/06/30 01:26:27;;;;;;;13.43;3.65;;;;;;;18.04;83.03;92369.47;5072688;28;20460;-77
2022/06/30 01:28:53;;;;;;;8.48;3.13;;;;;;;18.03;83.12;92373.97;5054664;28;20021;-76
2022/06/30 01:31:19;;;;;;;13.95;4.22;;;;;;;18.02;82.44;92369.78;5054261;28;20036;-77
2022/06/30 01:33:45;;;;;;;10.43;3.40;;;;;;;18.03;82.03;92368.69;5053667;28;20110;-76
2022/06/30 01:36:11;;;;;;;14.18;3.88;;;;;;;18.04;82.21;92366.81;5036838;28;20033;-76
2022/06/30 01:38:36;;;;;;;8.20;3.60;;;;;;;18.04;82.35;92367.59;5038374;28;20465;-76
2022/06/30 01:41:02;;;;;;;12.45;3.70;;;;;;;18.01;82.88;92370.91;5076143;28;20043;-77
2022/06/30 01:43:28;;;;;;;15.30;4.15;;;;;;;18.00;83.03;92372.00;5057873;28;20036;-76
2022/06/30 01:45:54;;;;;;;13.30;3.90;;;;;;;17.99;83.24;92369.69;5057515;28;20028;-77
2022/06/30 01:48:19;;;;;;;15.50;4.15;;;;;;;17.99;83.67;92372.31;5041020;28;20043;-77
2022/06/30 01:50:45;;;;;;;14.43;4.35;;;;;;;17.99;83.77;92372.31;5058405;28;20020;-77
2022/06/30 01:53:11;;;;;;;14.07;4.50;;;;;;;18.01;83.82;92372.78;5058132;28;20036;-77
2022/06/30 01:55:37;;;;;;;13.98;4.10;;;;;;;18.04;83.49;92374.78;5075800;28;20386;-77
2022/06/30 01:58:03;;;;;;;11.90;3.53;;;;;;;18.07;83.73;92363.50;5042059;28;20099;-77
2022/06/30 02:00:29;;;;;;;11.60;3.90;;;;;;;18.12;83.01;92362.50;5075744;28;20028;-76
2022/06/30 02:02:56;;;;;;;16.77;4.05;;;;;;;18.14;83.58;92368.97;5075577;28;20094;-77
2022/06/30 02:05:22;;;;;;;14.75;3.90;;;;;;;18.18;83.43;92375.16;5057268;28;20047;-77
2022/06/30 02:07:48;;;;;;;12.02;4.15;;;;;;;18.22;82.92;92376.03;5042261;28;20485;-77
2022/06/30 02:10:20;;;;;;;11.90;4.45;;;;;;;18.25;83.07;92369.28;5038095;28;20033;-76
2022/06/30 02:12:47;;;;;;;10.00;3.53;;;;;;;18.28;82.86;92360.66;5055934;28;20036;-76
2022/06/30 02:15:19;;;;;;;11.07;3.90;;;;;;;18.32;82.89;92364.19;5055199;28;20082;-77
2022/06/30 02:17:47;;;;;;;14.80;4.20;;;;;;;18.35;83.08;92371.47;5039802;28;20045;-76
2022/06/30 02:20:14;;;;;;;13.98;4.03;;;;;;;18.38;82.65;92370.78;5056373;28;20378;-76
2022/06/30 02:22:41;;;;;;;17.92;4.20;;;;;;;18.41;83.08;92372.00;5055443;28;20040;-76
2022/06/30 02:25:08;;;;;;;8.75;3.90;;;;;;;18.41;82.59;92370.13;5021381;28;20040;-77
2022/06/30 02:27:34;;;;;;;14.55;3.85;;;;;;;18.43;83.41;92372.44;5067190;28;20028;-76
2022/06/30 02:29:59;;;;;;;12.23;3.45;;;;;;;18.43;83.31;92375.84;5064645;28;20051;-76
2022/06/30 02:32:25;;;;;;;15.15;4.30;;;;;;;18.44;83.13;92368.66;5055312;28;20068;-77
2022/06/30 02:34:52;;;;;;;11.65;3.63;;;;;;;18.44;82.69;92371.31;5055190;28;20024;-76
2022/06/30 02:37:18;;;;;;;12.50;3.90;;;;;;;18.44;83.32;92366.81;5056136;28;20033;-77
2022/06/30 02:39:44;;;;;;;11.68;3.80;;;;;;;18.42;83.63;92366.38;5056878;28;20039;-76
2022/06/30 02:42:09;;;;;;;11.90;3.67;;;;;;;18.45;82.83;92363.03;5074950;28;20585;-77
2022/06/30 02:44:35;;;;;;;12.32;4.18;;;;;;;18.44;82.59;92366.81;5074680;28;20087;-76
2022/06/30 02:47:02;;;;;;;11.50;4.15;;;;;;;18.39;82.91;92364.38;5056784;28;20123;-77
2022/06/30 02:49:27;;;;;;;13.73;4.05;;;;;;;18.36;83.33;92370.34;5074281;28;20032;-76
2022/06/30 02:51:53;;;;;;;9.02;3.70;;;;;;;18.30;83.51;92363.75;5056341;28;20035;-76
2022/06/30 02:54:18;;;;;;;12.27;4.20;;;;;;;18.26;83.68;92363.66;5039951;28;20047;-77
2022/06/30 02:56:44;;;;;;;14.02;3.80;;;;;;;18.24;82.91;92359.81;5057312;28;20032;-76
2022/06/30 02:59:10;;;;;;;8.98;3.80;;;;;;;18.22;83.20;92375.28;5040202;28;20068;-76
2022/06/30 03:01:35;;;;;;;14.57;4.97;;;;;;;18.20;83.01;92361.59;5074561;28;20412;-76
2022/06/30 03:04:02;;;;;;;11.88;4.20;;;;;;;18.16;83.52;92356.19;5074668;28;20036;-77
2022/06/30 03:06:29;;;;;;;13.70;4.32;;;;;;;18.13;83.95;92364.81;5056463;28;20035;-77
2022/06/30 03:08:56;;;;;;;9.23;3.65;;;;;;;18.09;83.75;92372.66;5074733;28;20119;-77
2022/06/30 03:11:22;;;;;;;11.10;3.83;;;;;;;18.05;83.44;92369.13;5075255;28;20060;-77
2022/06/30 03:13:47;;;;;;;15.43;4.45;;;;;;;18.02;83.79;92372.44;5057138;28;20836;-77
2022/06/30 03:16:13;;;;;;;14.52;4.00;;;;;;;17.99;83.58;92369.69;5074719;28;20046;-77
2022/06/30 03:18:42;;;;;;;11.55;4.40;;;;;;;17.97;83.56;92372.69;5074827;28;20111;-76
2022/06/30 03:21:07;;;;;;;17.48;4.30;;;;;;;17.96;84.13;92367.72;5074661;28;20117;-77
2022/06/30 03:23:34;;;;;;;14.95;4.50;;;;;;;17.92;83.98;92364.94;5040214;28;20122;-76
2022/06/30 03:26:00;;;;;;;12.85;4.05;;;;;;;17.90;84.30;92372.47;5056750;28;20041;-77
2022/06/30 03:28:26;;;;;;;12.82;3.80;;;;;;;17.86;84.66;92376.91;5075533;28;20039;-77
2022/06/30 03:30:52;;;;;;;12.05;4.13;;;;;;;17.84;84.27;92369.28;5074968;28;20028;-77
2022/06/30 03:33:18;;;;;;;13.90;4.10;;;;;;;17.85;84.19;92377.97;5074240;28;20044;-77
2022/06/30 03:35:45;;;;;;;10.25;3.80;;;;;;;17.83;nan;92373.03;5056121;28;20060;-77
2022/06/30 03:38:11;;;;;;;14.68;4.10;;;;;;;17.84;83.81;92379.09;5074025;28;20032;-77
2022/06/30 03:40:36;;;;;;;16.02;3.92;;;;;;;17.82;84.52;92381.31;5073895;28;20079;-77
2022/06/30 03:43:02;;;;;;;13.52;4.18;;;;;;;17.80;84.43;92375.53;5039547;28;20071;-77
2022/06/30 03:45:28;;;;;;;15.43;4.22;;;;;;;17.78;84.71;92380.41;5073749;28;20043;-77
2022/06/30 03:47:54;;;;;;;16.77;4.50;;;;;;;17.78;84.02;92377.75;5039027;28;20051;-78
2022/06/30 03:50:20;;;;;;;10.18;4.10;;;;;;;17.80;84.66;92375.53;5055266;28;20135;-78
2022/06/30 03:52:45;;;;;;;28.13;3.95;;;;;;;17.81;84.29;92379.72;5055562;28;20029;-77
2022/06/30 03:55:12;;;;;;;14.27;4.25;;;;;;;17.83;84.25;92380.97;5073360;28;20102;-77
2022/06/30 03:57:37;;;;;;;20.92;4.43;;;;;;;17.83;84.67;92377.53;5073916;28;20032;-77
2022/06/30 04:00:04;;;;;;;10.48;3.92;;;;;;;17.82;84.21;92384.72;5042068;28;20112;-77
2022/06/30 04:02:31;;;;;;;12.98;4.20;;;;;;;17.83;84.52;92386.28;5018394;28;20425;-77
2022/06/30 04:04:56;;;;;;;11.77;3.83;;;;;;;17.85;84.03;92388.56;5019194;28;20179;-77
2022/06/30 04:07:22;;;;;;;8.35;4.03;;;;;;;17.87;84.12;92391.66;5035930;28;20130;-77
2022/06/30 04:09:47;;;;;;;14.15;4.32;;;;;;;17.88;84.04;92391.34;5060520;28;20028;-77
2022/06/30 04:12:13;;;;;;;15.30;4.43;;;;;;;17.91;84.63;92389.91;5038784;28;20071;-76
2022/06/30 04:14:38;;;;;;;18.15;4.32;;;;;;;17.93;84.55;92389.56;5073208;28;20093;-77
2022/06/30 04:17:04;;;;;;;14.68;4.28;;;;;;;17.95;84.75;92388.13;5038140;28;20449;-77
2022/06/30 04:19:30;;;;;;;15.85;4.50;;;;;;;17.97;85.02;92391.22;5071315;28;20029;-77
2022/06/30 04:21:56;;;;;;;11.27;5.47;;;;;;;18.01;84.96;92392.09;5018814;28;20033;-77
2022/06/30 04:24:22;;;;;;;12.27;4.28;;;;;;;18.04;84.81;92391.41;5052992;28;20033;-77
2022/06/30 04:26:48;;;;;;;12.68;4.38;;;;;;;18.08;85.24;92397.59;5053264;28;20029;-77
2022/06/30 04:29:13;;;;;;;24.08;5.15;;;;;;;18.12;85.14;92396.91;5035066;28;20040;-77
2022/06/30 04:34:23;;;;;;;14.43;4.32;;;;;;;18.26;84.47;92398.13;5055154;28;20186;-77
2022/06/30 04:36:48;;;;;;;13.27;3.92;;;;;;;18.34;85.07;92393.78;5055224;28;20111;-77
2022/06/30 04:39:14;;;;;;;17.10;4.25;;;;;;;18.40;84.90;92386.38;5052407;28;20044;-78
2022/06/30 04:41:40;;;;;;;12.27;4.72;;;;;;;18.47;84.63;92392.63;5072903;28;20039;-77
2022/06/30 04:44:06;;;;;;;18.48;5.50;;;;;;;18.56;84.86;92399.69;5054736;28;20036;-77
2022/06/30 04:46:31;;;;;;;19.08;4.50;;;;;;;18.67;83.42;92400.72;5065136;28;20037;-79
2022/06/30 04:48:57;;;;;;;14.48;4.80;;;;;;;18.74;83.10;92390.31;5049609;28;20075;-78
2022/06/30 04:51:23;;;;;;;13.98;4.90;;;;;;;18.80;83.22;92390.84;5037897;28;20060;-78
2022/06/30 04:53:49;;;;;;;11.88;4.20;;;;;;;18.84;83.96;92384.53;5060077;28;20045;-78
2022/06/30 04:56:15;;;;;;;13.75;4.82;;;;;;;18.90;82.55;92379.75;5054667;28;20158;-77
2022/06/30 04:58:40;;;;;;;16.60;4.90;;;;;;;18.93;81.23;92382.50;5072366;28;20406;-78
2022/06/30 05:01:06;;;;;;;12.10;4.05;;;;;;;18.95;80.86;92384.06;5046442;28;20036;-78
2022/06/30 05:03:33;;;;;;;17.40;5.22;;;;;;;18.97;80.15;92379.19;5069315;28;20139;-76
2022/06/30 05:05:59;;;;;;;12.07;3.85;;;;;;;19.03;79.13;92383.13;5065223;28;20115;-78
2022/06/30 05:08:25;;;;;;;12.65;4.35;;;;;;;19.14;79.10;92376.22;5050450;28;20068;-77
2022/06/30 05:10:51;;;;;;;23.73;5.60;;;;;;;19.13;79.72;92379.97;5051359;28;20040;-78
2022/06/30 05:13:17;;;;;;;12.60;4.55;;;;;;;19.14;80.38;92387.59;5032505;28;20398;-77
2022/06/30 05:15:46;;;;;;;14.27;4.75;;;;;;;19.21;81.54;92386.22;5018185;28;20045;-78
2022/06/30 05:18:13;;;;;;;17.00;4.55;;;;;;;19.33;80.46;92384.25;5018372;28;20041;-77
2022/06/30 05:20:39;;;;;;;18.95;5.18;;;;;;;19.29;79.45;92388.69;5019287;28;20033;-77
2022/06/30 05:23:05;;;;;;;11.60;3.95;;;;;;;19.57;79.05;92385.19;5036064;28;20406;-77
2022/06/30 05:28:14;;;;;;;15.75;4.95;;;;;;;19.74;76.75;92382.19;5053899;28;20048;-78
2022/06/30 05:30:41;;;;;;;12.32;4.68;;;;;;;19.73;76.86;92385.19;5054629;28;20435;-77
2022/06/30 05:33:08;;;;;;;22.20;5.72;;;;;;;19.64;77.20;92388.00;5021453;28;20079;-78
2022/06/30 05:35:33;;;;;;;12.93;4.80;;;;;;;19.64;77.55;92381.94;5055129;28;20044;-77
2022/06/30 05:38:00;;;;;;;17.25;5.32;;;;;;;19.67;77.58;92392.63;5037149;28;20494;-78
2022/06/30 05:40:27;;;;;;;13.52;4.82;;;;;;;19.73;77.67;92391.28;5037500;28;20049;-77
2022/06/30 05:42:52;;;;;;;20.08;5.15;;;;;;;19.86;77.67;92389.28;5056234;28;20482;-78
2022/06/30 05:45:18;;;;;;;12.27;5.30;;;;;;;20.06;77.27;92398.06;5055182;28;20029;-78
2022/06/30 05:47:50;;;;;;;18.20;5.15;;;;;;;20.32;76.82;92402.03;5054826;28;20033;-78
2022/06/30 05:50:16;;;;;;;14.57;5.40;;;;;;;21.10;71.78;92404.69;5037049;28;20022;-78
2022/06/30 05:52:42;;;;;;;14.90;5.15;;;;;;;21.54;73.18;92398.97;5061336;28;20025;-78
2022/06/30 05:55:09;;;;;;;20.38;6.13;;;;;;;21.92;69.29;92402.59;5057450;28;20098;-79
2022/06/30 05:57:45;;;;;;;15.45;5.40;;;;;;;22.39;66.52;92398.69;5040264;28;20087;-77
2022/06/30 06:00:12;;;;;;;18.23;5.65;;;;;;;22.48;66.39;92404.53;5057527;28;20045;-78
2022/06/30 06:02:38;;;;;;;17.50;5.32;;;;;;;22.71;66.43;92398.31;5067817;28;20060;-77
2022/06/30 06:05:04;;;;;;;19.27;5.10;;;;;;;23.04;65.73;92395.66;5070372;28;20098;-77
2022/06/30 06:07:30;;;;;;;17.17;4.80;;;;;;;23.51;64.60;92396.09;5057956;28;20172;-78
2022/06/30 06:09:55;;;;;;;21.02;4.95;;;;;;;23.98;62.40;92399.94;5041550;28;20092;-78
2022/06/30 06:12:22;;;;;;;15.93;5.25;;;;;;;24.20;60.63;92400.81;5076402;28;20512;-78
2022/06/30 06:14:48;;;;;;;33.58;6.40;;;;;;;24.61;60.49;92397.22;5043265;28;20047;-78
2022/06/30 06:17:13;;;;;;;55.10;7.65;;;;;;;24.36;62.43;92387.13;5022080;28;20025;-78
2022/06/30 06:19:39;;;;;;;36.28;7.03;;;;;;;24.35;63.55;92392.88;5056266;28;20380;-79
2022/06/30 06:22:04;;;;;;;21.10;4.75;;;;;;;24.47;63.41;92392.56;5052811;28;20374;-80
2022/06/30 06:24:30;;;;;;;13.77;4.47;;;;;;;24.58;63.43;92398.75;5053095;28;20044;-81
2022/06/30 06:26:55;;;;;;;18.40;4.70;;;;;;;24.56;62.94;92400.28;5057797;28;20040;-80
2022/06/30 06:29:21;;;;;;;12.80;5.00;;;;;;;24.49;62.90;92396.41;5056829;28;20036;-80
2022/06/30 06:31:47;;;;;;;16.52;5.22;;;;;;;23.83;64.53;92399.06;5056568;28;20036;-81
2022/06/30 06:34:12;;;;;;;23.17;5.60;;;;;;;23.88;65.21;92401.38;5071971;28;20091;-80
2022/06/30 06:36:38;;;;;;;20.58;5.03;;;;;;;23.58;66.70;92403.41;5058087;28;20045;-80
2022/06/30 06:39:04;;;;;;;17.08;5.22;;;;;;;23.01;68.15;92401.75;5065447;28;20039;-80
2022/06/30 06:41:30;;;;;;;17.20;4.85;;;;;;;22.76;70.22;92403.31;5076954;28;20493;-80
2022/06/30 06:43:55;;;;;;;19.77;5.22;;;;;;;22.51;71.37;92409.13;5076059;28;20043;-80
2022/06/30 06:46:26;;;;;;;19.27;4.82;;;;;;;22.53;71.34;92412.22;5066548;28;20122;-81
2022/06/30 06:48:54;;;;;;;18.75;4.97;;;;;;;22.36;71.60;92412.75;5057306;28;20033;-80
2022/06/30 06:51:19;;;;;;;20.45;5.40;;;;;;;22.18;72.48;92413.25;5060156;28;20097;-80
2022/06/30 06:53:45;;;;;;;16.98;5.10;;;;;;;22.21;73.20;92411.75;5057373;28;20346;-79
2022/06/30 06:56:11;;;;;;;19.83;6.22;;;;;;;22.38;72.84;92418.47;5072539;28;20051;-80
2022/06/30 06:58:36;;;;;;;19.40;5.20;;;;;;;22.10;73.27;92410.84;5060973;28;20317;-79
2022/06/30 07:01:04;;;;;;;18.10;5.43;;;;;;;22.20;73.64;92418.22;5073807;28;20075;-79
2022/06/30 07:03:30;;;;;;;48.38;7.80;;;;;;;22.07;74.25;92412.34;5057806;28;20086;-81
2022/06/30 07:05:56;;;;;;;17.50;5.60;;;;;;;22.04;74.35;92413.84;5075439;28;20056;-79
2022/06/30 07:08:22;;;;;;;16.63;5.47;;;;;;;22.07;75.35;92417.66;5038246;28;20033;-79
2022/06/30 07:10:48;;;;;;;23.08;5.68;;;;;;;22.42;74.01;92416.63;5073668;28;20039;-80
2022/06/30 07:13:13;;;;;;;19.92;6.07;;;;;;;22.65;72.48;92420.00;5055576;28;20028;-80
2022/06/30 07:15:39;;;;;;;13.43;5.50;;;;;;;22.85;72.05;92414.47;5074057;28;20389;-81
2022/06/30 07:18:04;;;;;;;18.48;5.75;;;;;;;22.82;72.32;92417.88;5061030;28;20172;-81
2022/06/30 07:20:30;;;;;;;11.30;4.25;;;;;;;22.79;73.46;92413.28;5040393;28;20392;-80
2022/06/30 07:22:56;;;;;;;17.55;5.78;;;;;;;22.48;73.66;92406.44;5073972;28;20036;-77
2022/06/30 07:25:21;;;;;;;23.42;6.40;;;;;;;22.43;73.88;92404.84;5078103;28;20037;-77
2022/06/30 07:27:47;;;;;;;21.55;5.93;;;;;;;22.32;75.15;92406.63;5058166;28;20077;-78
2022/06/30 07:30:13;;;;;;;15.77;5.57;;;;;;;22.72;73.17;92410.50;5057801;28;20044;-77
2022/06/30 07:32:38;;;;;;;15.07;6.15;;;;;;;22.94;72.08;92406.94;5077766;28;20032;-77
2022/06/30 07:35:06;;;;;;;19.42;6.90;;;;;;;22.94;71.53;92408.88;5043661;28;20032;-77
2022/06/30 07:37:36;;;;;;;23.67;6.25;;;;;;;22.72;72.25;92411.31;5074689;28;20416;-78
2022/06/30 07:40:02;;;;;;;23.05;6.18;;;;;;;22.97;71.39;92411.59;5078225;28;20392;-77
2022/06/30 07:42:28;;;;;;;12.73;6.50;;;;;;;23.25;68.55;92405.03;5064972;28;20031;-77
2022/06/30 07:44:53;;;;;;;12.85;5.32;;;;;;;23.52;68.57;92404.88;5039477;28;20048;-77
2022/06/30 07:47:19;;;;;;;21.73;7.28;;;;;;;23.04;68.28;92403.69;5061699;28;20038;-78
2022/06/30 07:49:44;;;;;;;21.55;8.60;;;;;;;22.81;70.75;92401.13;5039524;28;20051;-78
2022/06/30 07:52:10;;;;;;;17.15;7.20;;;;;;;22.88;70.53;92403.09;5040171;28;20117;-78
2022/06/30 07:54:36;;;;;;;12.18;6.03;;;;;;;23.20;69.75;92394.69;5040318;28;20395;-77
2022/06/30 07:57:02;;;;;;;17.98;6.90;;;;;;;23.25;67.90;92399.69;5058099;28;20030;-77
2022/06/30 07:59:27;;;;;;;26.77;8.10;;;;;;;23.28;68.78;92393.59;5041597;28;20113;-78
2022/06/30 08:01:53;;;;;;;20.08;7.70;;;;;;;23.70;66.06;92395.88;5057679;28;20049;-78
2022/06/30 08:04:19;;;;;;;22.33;8.20;;;;;;;23.72;67.97;92398.19;5057585;28;20049;-77
2022/06/30 08:06:44;;;;;;;17.73;7.93;;;;;;;23.81;66.62;92403.22;5057612;28;20052;-78
2022/06/30 08:09:10;;;;;;;18.35;8.48;;;;;;;23.68;67.45;92408.06;5024376;28;20044;-78
2022/06/30 08:11:35;;;;;;;24.02;8.10;;;;;;;23.78;67.24;92404.00;5053206;28;20478;-78
2022/06/30 08:14:01;;;;;;;19.23;7.28;;;;;;;23.94;67.44;92409.81;5075067;28;20032;-77
2022/06/30 08:16:26;;;;;;;18.02;7.50;;;;;;;24.07;68.16;92404.94;5056753;28;20055;-77
2022/06/30 08:18:52;;;;;;;39.10;10.13;;;;;;;24.23;66.94;92404.66;5073146;28;20038;-77
2022/06/30 08:21:18;;;;;;;38.75;8.60;;;;;;;24.07;68.23;92403.03;5040232;28;20120;-78
2022/06/30 08:23:43;;;;;;;25.45;8.20;;;;;;;23.88;67.92;92403.28;5039830;28;20048;-78
2022/06/30 08:26:09;;;;;;;42.13;8.65;;;;;;;23.84;68.47;92402.50;5074135;28;20237;-77
2022/06/30 08:28:34;;;;;;;23.08;7.85;;;;;;;23.90;68.61;92399.09;5056747;28;20086;-78
2022/06/30 08:31:01;;;;;;;20.35;8.20;;;;;;;23.67;68.72;92401.19;5070989;28;20417;-76
2022/06/30 08:33:26;;;;;;;18.77;7.40;;;;;;;23.73;68.83;92399.69;5054936;28;20531;-78
2022/06/30 08:35:52;;;;;;;18.83;7.07;;;;;;;23.48;69.44;92405.63;5056046;28;20036;-78
2022/06/30 08:38:18;;;;;;;30.17;8.63;;;;;;;23.22;71.14;92403.84;5055493;28;20526;-78
2022/06/30 08:43:32;;;;;;;29.48;8.85;;;;;;;23.40;70.90;92412.03;5057446;28;20386;-77
2022/06/30 08:46:00;;;;;;;22.63;8.18;;;;;;;23.65;69.64;92414.16;5074090;28;20106;-77
2022/06/30 08:48:26;;;;;;;17.95;7.97;;;;;;;23.55;69.68;92420.16;5055309;28;20043;-77
2022/06/30 08:51:04;;;;;;;19.88;8.43;;;;;;;23.80;68.87;92421.19;5073700;28;20052;-77
2022/06/30 08:53:37;;;;;;;15.55;7.53;;;;;;;23.92;67.84;92422.78;5072043;28;20036;-77
2022/06/30 08:56:04;;;;;;;18.50;6.20;;;;;;;23.90;67.66;92420.47;5053609;28;20109;-77
2022/06/30 08:58:30;;;;;;;16.88;7.72;;;;;;;24.11;68.93;92421.75;5036222;28;20055;-76
2022/06/30 09:00:55;;;;;;;20.90;8.13;;;;;;;24.29;65.28;92432.56;5035532;28;20048;-78
2022/06/30 09:03:21;;;;;;;14.43;7.00;;;;;;;24.49;64.42;92427.75;5006609;28;20045;-78
2022/06/30 09:05:47;;;;;;;15.85;7.60;;;;;;;24.58;64.87;92433.53;5037694;28;20041;-77
2022/06/30 09:08:13;;;;;;;20.63;7.43;;;;;;;24.68;63.75;92432.06;5053913;28;20112;-78
2022/06/30 09:10:53;;;;;;;32.00;8.90;;;;;;;24.69;63.24;92431.66;5053793;28;20823;-78
2022/06/30 09:13:19;;;;;;;14.68;6.30;;;;;;;24.60;64.13;92423.22;5035472;28;20036;-76
2022/06/30 09:15:46;;;;;;;18.45;7.50;;;;;;;24.70;63.70;92427.88;5054975;28;20074;-78
2022/06/30 09:18:28;;;;;;;18.23;7.32;;;;;;;24.52;63.71;92429.69;5054921;28;20036;-77
2022/06/30 09:20:54;;;;;;;21.17;7.28;;;;;;;24.82;65.10;92420.66;5054903;28;20037;-78
2022/06/30 09:23:29;;;;;;;17.90;6.03;;;;;;;24.73;63.94;92426.34;5037048;28;20032;-77
2022/06/30 09:26:01;;;;;;;23.92;7.35;;;;;;;24.80;63.56;92426.38;5037675;28;20035;-77
2022/06/30 09:28:46;;;;;;;15.65;6.85;;;;;;;24.84;65.26;92431.75;5036678;28;20040;-78
2022/06/30 09:31:31;;;;;;;21.35;6.65;;;;;;;24.82;65.94;92429.44;5054491;28;20039;-77
2022/06/30 09:34:19;;;;;;;15.73;6.80;;;;;;;24.78;64.89;92433.25;5054548;28;20037;-79
2022/06/30 09:36:46;;;;;;;15.40;6.50;;;;;;;24.79;65.09;92440.13;5055748;28;20033;-78
2022/06/30 09:39:13;;;;;;;16.63;6.80;;;;;;;24.75;65.01;92436.69;5054897;28;20043;-78
2022/06/30 09:41:43;;;;;;;18.73;6.82;;;;;;;24.88;66.01;92435.97;5036937;28;20041;-77
2022/06/30 09:44:20;;;;;;;18.60;7.07;;;;;;;25.27;64.34;92443.38;5035148;28;20044;-78
2022/06/30 09:47:03;;;;;;;23.27;8.07;;;;;;;25.40;62.17;92441.13;5019402;28;20043;-76
2022/06/30 09:49:33;;;;;;;15.60;6.60;;;;;;;25.60;62.62;92436.19;5019828;28;20056;-77
2022/06/30 09:52:04;;;;;;;16.05;6.80;;;;;;;25.16;63.47;92437.22;5019696;28;20048;-77
2022/06/30 09:54:35;;;;;;;19.55;6.53;;;;;;;25.16;63.90;92442.56;5035735;28;20048;-77
2022/06/30 09:57:07;;;;;;;16.23;7.43;;;;;;;25.14;63.88;92429.53;5036031;28;20052;-77
2022/06/30 09:59:34;;;;;;;11.73;6.70;;;;;;;25.05;64.88;92431.81;5053828;28;20446;-78
2022/06/30 10:02:00;;;;;;;21.40;7.20;;;;;;;25.25;67.01;92436.88;5039123;28;20053;-78
2022/06/30 10:04:26;;;;;;;16.95;7.38;;;;;;;24.81;66.59;92433.25;5055645;28;20045;-77
2022/06/30 10:06:55;;;;;;;21.58;7.75;;;;;;;24.66;66.51;92442.38;5056518;28;20553;-77
2022/06/30 10:09:21;;;;;;;16.45;6.47;;;;;;;25.18;67.71;92439.50;5026203;28;20073;-77
2022/06/30 10:11:47;;;;;;;17.73;6.82;;;;;;;25.38;65.79;92437.31;5035706;28;20556;-77
2022/06/30 10:14:16;;;;;;;24.30;8.07;;;;;;;25.63;64.30;92430.06;5019391;28;20071;-77
2022/06/30 10:16:43;;;;;;;19.83;7.80;;;;;;;25.30;64.44;92433.81;5035590;28;20383;-78
2022/06/30 10:19:10;;;;;;;19.77;7.43;;;;;;;25.16;66.22;92429.16;5043159;28;20080;-77
2022/06/30 10:21:37;;;;;;;16.05;7.47;;;;;;;25.30;65.51;92418.50;5057384;28;20116;-78
2022/06/30 10:24:05;;;;;;;25.75;7.55;;;;;;;25.45;65.19;92421.22;5057656;28;20106;-78
2022/06/30 10:29:17;;;;;;;20.13;5.88;;;;;;;25.79;63.51;92427.00;5055499;28;20100;-77
2022/06/30 10:32:07;;;;;;;20.60;7.25;;;;;;;25.88;62.87;92432.78;5057621;28;20405;-77
2022/06/30 10:34:43;;;;;;;15.85;7.25;;;;;;;25.96;62.84;92436.19;5053013;28;20036;-78
2022/06/30 10:38:10;;;;;;;11.30;6.38;;;;;;;26.19;61.77;92430.47;5055691;28;20037;-76
2022/06/30 10:41:03;;;;;;;27.17;7.82;;;;;;;26.14;58.10;92430.81;4959160;28;20576;-76
2022/06/30 10:43:29;;;;;;;21.42;7.25;;;;;;;26.09;57.62;92436.59;5050351;28;20444;-77
2022/06/30 10:46:00;;;;;;;20.38;8.13;;;;;;;25.40;61.21;92443.03;5056978;28;20041;-77
2022/06/30 10:48:28;;;;;;;16.92;7.63;;;;;;;25.08;62.34;92444.47;5054902;28;20041;-78
2022/06/30 10:50:56;;;;;;;23.33;8.35;;;;;;;25.05;62.19;92445.19;5055652;28;20025;-77
2022/06/30 10:53:41;;;;;;;23.92;7.88;;;;;;;25.00;63.43;92442.13;5046052;28;20037;-76
2022/06/30 10:56:08;;;;;;;18.95;7.97;;;;;;;24.66;66.01;92443.13;5036144;28;20411;-77
2022/06/30 10:58:34;;;;;;;22.25;8.77;;;;;;;24.61;66.13;92445.38;5035825;28;20038;-77
2022/06/30 11:01:02;;;;;;;20.40;9.45;;;;;;;24.58;65.79;92452.25;5035595;28;20443;-78
2022/06/30 11:03:40;;;;;;;16.98;8.38;;;;;;;24.18;66.99;92451.22;5057577;28;20064;-78
2022/06/30 11:06:11;;;;;;;22.05;9.10;;;;;;;23.88;66.92;92444.13;5038471;28;20029;-76
2022/06/30 11:08:37;;;;;;;20.65;8.50;;;;;;;24.05;67.83;92452.69;5038744;28;20041;-77
2022/06/30 11:11:25;;;;;;;20.55;8.70;;;;;;;24.11;68.27;92456.53;5037247;28;20493;-77
2022/06/30 11:14:02;;;;;;;19.80;8.43;;;;;;;24.16;67.88;92453.53;5063307;28;20121;-76
2022/06/30 11:16:30;;;;;;;18.00;7.93;;;;;;;24.19;68.67;92447.44;5058779;28;20047;-77
2022/06/30 11:18:55;;;;;;;17.65;8.88;;;;;;;24.19;68.35;92442.06;5042222;28;20032;-77
2022/06/30 11:21:21;;;;;;;22.35;8.23;;;;;;;24.18;69.57;92445.13;5042353;28;20040;-77
2022/06/30 11:23:48;;;;;;;20.90;8.60;;;;;;;24.23;69.63;92437.53;5057125;28;20576;-77
2022/06/30 11:29:23;;;;;;;22.95;8.65;;;;;;;24.28;70.03;92442.50;5077279;28;20113;-77
2022/06/30 11:31:50;;;;;;;19.05;9.13;;;;;;;24.35;69.55;92435.69;5076934;28;20040;-77
2022/06/30 11:34:19;;;;;;;25.88;9.93;;;;;;;24.41;70.17;92437.63;5042243;28;20044;-77
2022/06/30 11:36:46;;;;;;;24.77;9.25;;;;;;;24.67;69.78;92439.31;5064082;28;20036;-78
2022/06/30 11:39:18;;;;;;;25.25;9.73;;;;;;;25.23;68.69;92436.50;5057207;28;20032;-78
2022/06/30 11:42:06;;;;;;;26.60;9.30;;;;;;;25.74;66.91;92438.88;5056627;28;20116;-76
2022/06/30 11:44:38;;;;;;;19.70;8.98;;;;;;;26.27;63.98;92445.38;5041955;28;20099;-77
2022/06/30 11:47:08;;;;;;;21.13;10.02;;;;;;;26.46;61.67;92449.59;5041621;28;20312;-77
2022/06/30 11:49:43;;;;;;;24.42;10.80;;;;;;;26.36;61.71;92450.34;5022536;28;20040;-77
2022/06/30 11:52:21;;;;;;;19.95;8.85;;;;;;;26.67;60.49;92454.16;5056588;28;20033;-78
2022/06/30 11:54:56;;;;;;;19.33;9.65;;;;;;;27.07;60.04;92448.66;5039415;28;20037;-77
2022/06/30 11:57:23;;;;;;;23.55;9.85;;;;;;;27.45;59.23;92446.97;5045318;28;20033;-77
2022/06/30 11:59:55;;;;;;;27.00;11.20;;;;;;;27.28;56.52;92453.94;5058510;28;20024;-78
2022/06/30 12:02:21;;;;;;;26.20;10.27;;;;;;;27.13;57.46;92450.56;5059472;28;20074;-78